CheckWX is a tool to help pilots better visualize weather data.  It is not intended as a substitute for an official pre-flight weather briefing.

08:48:08 UTC

KMXF METAR
Maxwell AFB Airport
Montgomery, Alabama, USA
Current

52 mins ago

KMXF 240756Z AUTO 13003KT 10SM OVC075 12/01 A3006 RMK AO2 SLP182 T01180008
Observed
Feb-24 @ 07:56 UTC
Wind
  • 130° at 3 KTS
Visibility
10 SM
Flight Rules
VFR
Cloud Levels
  • Overcast at 7,500' AGL
Temperature
12°C / 54°F
Dewpoint
C / 34°F
Humidity
47%
Altimeter
30.06" Hg
Pressure
1017.92 hPa
Previous

2 hours ago

KMXF 240656Z AUTO 12004KT 10SM OVC070 12/00 A3008 RMK AO2 SLP189 T01180002
Observed
Feb-24 @ 06:56 UTC
Wind
  • 120° at 4 KTS
Visibility
10 SM
Flight Rules
VFR
Cloud Levels
  • Overcast at 7,000' AGL
Temperature
12°C / 54°F
Dewpoint
C / 32°F
Humidity
44%
Altimeter
30.08" Hg
Pressure
1018.62 hPa
Previous

3 hours ago

KMXF 240556Z AUTO 00000KT 10SM OVC075 12/01 A3010 RMK AO2 SLP196 T01150014 10125 20113 401400012 57021
Observed
Feb-24 @ 05:56 UTC
Visibility
10 SM
Flight Rules
VFR
Cloud Levels
  • Overcast at 7,500' AGL
Temperature
12°C / 54°F
Dewpoint
C / 34°F
Humidity
47%
Altimeter
30.1" Hg
Pressure
1019.32 hPa